• Join FlightAware (Why Join?)
  • Login
  • US Flag GB Flag 
02:30 EDT


 

Airport Tracker/Info


-or-


 

Live Flight TrackerFlight Track Log ✈ EJM685 ✈ 21-Oct-2013 ✈ KBRO - KTEB

Flight Track Log - Related Links

Times and Time Zones

All times are in EDT time to prevent confusion due to time zone crossing. See the EJM685 flight status page for this flight to view local times or setup timezone preferences in your user account.

Time Position Orientation Groundspeed Altitude Reporting Facility
EDT Latitude Longitude Course Direction KTS MPH feet Rate Location/Type
16:16 25.8875 -97.4031 40° Northeast 168 193 1,800  Level Houston Center
16:17 25.9314 -97.3622 40° Northeast 241 277 3,000 960 Climbing Houston Center
16:18 25.9481 -97.3569 16° North 239 275 3,000 1,320 Level Houston Center
16:18 26.0106 -97.3375 16° North 283 326 4,400 1,980 Climbing Houston Center
16:19 26.0264 -97.3297 24° Northeast 267 307 5,100 3,900 Climbing Houston Center
16:20 26.1017 -97.3022 18° North 281 323 9,400 3,240 Climbing Houston Center
16:21 26.1919 -97.2689 18° North 315 362 11,900 2,460 Climbing Houston Center
16:22 26.2931 -97.2322 18° North 377 434 14,600 2,760 Climbing Houston Center
16:23 26.4086 -97.1883 19° North 404 465 17,700 2,700 Climbing Houston Center
16:24 26.5211 -97.1472 18° North 423 487 20,200 2,460 Climbing Houston Center
16:25 26.6506 -97.0992 18° North 453 521 22,800 1,320 Climbing Houston Center
16:26 26.7531 -97.0633 17° North 463 533 23,000 1,140 Climbing Houston Center
16:27 26.8925 -96.9797 28° Northeast 472 543 25,200 1,980 Climbing Houston Center
16:28 27.0069 -96.8919 34° Northeast 491 565 27,200 1,980 Climbing Houston Center
16:29 27.1244 -96.7994 35° Northeast 507 583 29,300 1,980 Climbing Houston Center
16:30 27.2500 -96.7008 35° Northeast 524 603 31,300 1,920 Climbing Houston Center
16:31 27.3736 -96.6047 35° Northeast 535 616 33,300 1,740 Climbing Houston Center
16:32 27.4975 -96.5067 35° Northeast 542 624 35,000 1,920 Climbing Houston Center
16:33 27.6500 -96.3875 35° Northeast 552 635 37,300 2,100 Climbing Houston Center
16:34 27.7758 -96.2875 35° Northeast 555 639 39,400 1,800 Climbing Houston Center
16:35 27.8983 -96.1903 35° Northeast 544 626 41,100 1,380 Climbing Houston Center
16:36 28.0211 -96.0931 35° Northeast 541 623 42,300 1,020 Climbing Houston Center
16:37 28.1444 -95.9942 35° Northeast 543 625 43,300 1,080 Climbing Houston Center
16:38 28.2764 -95.8881 35° Northeast 541 623 44,600 780 Climbing Houston Center
16:39 28.3956 -95.7931 35° Northeast 526 605 45,000 180 Climbing Houston Center
16:40 28.5125 -95.6972 36° Northeast 520 598 45,000  Level Houston Center
16:41 28.6556 -95.5836 35° Northeast 523 602 45,000  Level Houston Center
16:42 28.7756 -95.4867 35° Northeast 528 608 45,000  Level Houston Center
16:44 28.8933 -95.3886 36° Northeast 526 605 45,000  Level Houston Center
16:45 29.0131 -95.2922 35° Northeast 526 605 45,000  Level Houston Center
16:46 29.1314 -95.1950 36° Northeast 528 608 45,000  Level Houston Center
16:47 29.2742 -95.0778 36° Northeast 530 610 45,000  Level Houston Center
16:48 29.3906 -94.9811 36° Northeast 525 604 45,000  Level Houston Center
16:49 29.5081 -94.8833 36° Northeast 528 608 45,000  Level Houston Center
16:50 29.6272 -94.7869 35° Northeast 531 611 45,000  Level Houston Center
16:51 29.7697 -94.6692 36° Northeast 530 610 45,000  Level Houston Center
16:52 29.8872 -94.5717 36° Northeast 525 604 45,000  Level Houston Center
16:53 30.0033 -94.4756 36° Northeast 528 608 45,000  Level Houston Center
16:54 30.1233 -94.3753 36° Northeast 531 611 45,000  Level Houston Center
16:55 30.2431 -94.2747 36° Northeast 530 610 45,000  Level Houston Center
16:56 30.3847 -94.1561 36° Northeast 521 600 45,000  Level Houston Center
16:57 30.5028 -94.0569 36° Northeast 518 596 45,000  Level Houston Center
16:58 30.6219 -93.9556 36° Northeast 524 603 45,000  Level Houston Center
16:59 30.7392 -93.8567 36° Northeast 518 596 45,000  Level Houston Center
17:00 30.8556 -93.7564 36° Northeast 517 595 45,000  Level Houston Center
17:01 30.9736 -93.6558 36° Northeast 522 601 45,000  Level Houston Center
17:02 31.0911 -93.5542 37° Northeast 524 603 45,000  Level Houston Center
17:03 31.2092 -93.4536 36° Northeast 524 603 45,000  Level Houston Center
17:04 31.3375 -93.3428 36° Northeast 524 603 45,000  Level Houston Center
17:05 31.4681 -93.2283 37° Northeast 529 609 45,000  Level Houston Center
17:06 31.5847 -93.1264 37° Northeast 525 604 45,000  Level Houston Center
17:07 31.7028 -93.0247 36° Northeast 526 605 45,000  Level Houston Center
17:08 31.8194 -92.9211 37° Northeast 527 606 45,000  Level Houston Center
17:09 31.9372 -92.8186 36° Northeast 527 606 45,000  Level Houston Center
17:10 32.0839 -92.6892 37° Northeast 533 613 45,000  Level Houston Center
17:11 32.1978 -92.5889 37° Northeast 532 612 45,000  Level Houston Center
17:12 32.3117 -92.4797 39° Northeast 529 609 45,000  Level Houston Center
17:14 32.4164 -92.3528 46° Northeast 538 619 45,000  Level Houston Center
17:15 32.5206 -92.2281 45° Northeast 536 617 45,000  Level Houston Center
17:16 32.6389 -92.0833 46° Northeast 537 618 45,000  Level Houston Center
17:17 32.7433 -91.9558 46° Northeast 538 619 45,000  Level Houston Center
17:18 32.8475 -91.8322 45° Northeast 533 613 45,000  Level Houston Center
17:19 32.9494 -91.7022 47° Northeast 536 617 45,000  Level Houston Center
17:20 33.0750 -91.5500 45° Northeast 534 615 45,000  Level Houston Center
17:21 33.1642 -91.4375 47° Northeast 535 616 45,000  Level Houston Center
17:22 33.3219 -91.2464 45° Northeast 534 615 45,000  Level Memphis Center
17:23 33.4239 -91.1189 46° Northeast 530 610 45,000  Level Memphis Center
17:24 33.5264 -90.9911 46° Northeast 532 612 45,000  Level Memphis Center
17:25 33.6281 -90.8622 47° Northeast 534 615 45,000  Level Memphis Center
17:26 33.7511 -90.7083 46° Northeast 534 615 45,000  Level Memphis Center
17:27 33.8422 -90.5911 47° Northeast 535 616 45,000  Level Memphis Center
17:28 33.9456 -90.4611 46° Northeast 534 615 45,000  Level Memphis Center
17:29 34.0656 -90.3083 47° Northeast 534 615 45,000  Level Memphis Center
17:30 34.1681 -90.1753 47° Northeast 536 617 45,000  Level Memphis Center
17:31 34.2703 -90.0442 47° Northeast 534 615 45,000  Level Memphis Center
17:33 34.3736 -89.9131 46° Northeast 534 615 45,000  Level Memphis Center
17:34 34.4756 -89.7808 47° Northeast 536 617 45,000  Level Memphis Center
17:35 34.5767 -89.6469 47° Northeast 537 618 45,000  Level Memphis Center
17:36 34.6956 -89.4922 47° Northeast 540 621 45,000  Level Memphis Center
17:37 34.7964 -89.3606 47° Northeast 536 617 45,000  Level Memphis Center
17:38 34.8981 -89.2267 47° Northeast 536 617 45,000  Level Memphis Center
17:39 35.0006 -89.0931 47° Northeast 537 618 45,000  Level Memphis Center
17:40 35.1011 -88.9611 47° Northeast 531 611 45,000  Level Memphis Center
17:41 35.2158 -88.8056 48° Northeast 526 605 45,000  Level Memphis Center
17:42 35.3161 -88.6736 47° Northeast 525 604 45,000  Level Memphis Center
17:43 35.4183 -88.5353 48° Northeast 524 603 45,000  Level Memphis Center
17:44 35.5181 -88.4028 47° Northeast 527 606 45,000  Level Memphis Center
17:45 35.6192 -88.2650 48° Northeast 536 617 45,000  Level Memphis Center
17:46 35.7153 -88.1353 48° Northeast 533 613 45,000  Level Memphis Center
17:47 35.8164 -87.9981 48° Northeast 534 615 45,000  Level Memphis Center
17:48 35.9342 -87.8389 48° Northeast 533 613 45,000  Level Memphis Center
17:49 36.0333 -87.7008 48° Northeast 531 611 45,000  Level Memphis Center
17:50 36.1342 -87.5619 48° Northeast 534 615 45,000  Level Memphis Center
17:51 36.2356 -87.4225 48° Northeast 538 619 45,000  Level Memphis Center
17:52 36.3361 -87.2825 48° Northeast 537 618 45,000  Level Memphis Center
17:53 36.4378 -87.1408 48° Northeast 538 619 45,000  Level Memphis Center
17:54 36.5403 -86.9983 48° Northeast 539 620 45,000  Level Memphis Center
17:55 36.6411 -86.8547 49° Northeast 539 620 45,000  Level Memphis Center
17:56 36.7411 -86.7119 49° Northeast 539 620 45,000  Level Memphis Center
17:57 36.8414 -86.5689 49° Northeast 539 620 45,000  Level Memphis Center
17:58 36.9417 -86.3861 55° Northeast 546 628 45,000  Level Memphis Center
17:59 36.9700 -86.2594 74° East 557 641 45,000  Level Indianapolis Center
18:00 37.0111 -86.0731 75° East 554 638 45,000  Level Indianapolis Center
18:01 37.0500 -85.8864 75° East 550 633 45,000  Level Indianapolis Center
18:02 37.0892 -85.6972 75° East 554 638 45,000  Level Indianapolis Center
18:03 37.1325 -85.4911 75° East 554 638 45,000  Level Indianapolis Center
18:04 37.1725 -85.3056 75° East 553 636 45,000  Level Indianapolis Center
18:05 37.2125 -85.1178 75° East 557 641 45,000  Level Indianapolis Center
18:06 37.2775 -84.9078 69° East 554 638 45,000  Level Indianapolis Center
18:07 37.3339 -84.7275 68° East 555 639 45,000  Level Indianapolis Center
18:08 37.3919 -84.5481 68° East 554 638 45,000  Level Indianapolis Center
18:09 37.4467 -84.3692 69° East 549 632 45,000  Level Indianapolis Center
18:10 37.5025 -84.1892 69° East 550 633 45,000  Level Indianapolis Center
18:12 37.5481 -84.0019 73° East 557 641 45,000  Level Indianapolis Center
18:13 37.5683 -83.7783 83° East 552 635 45,000  Level Indianapolis Center
18:14 37.5864 -83.5836 83° East 557 641 45,000  Level Indianapolis Center
18:15 37.6042 -83.3908 83° East 553 636 45,000  Level Indianapolis Center
18:16 37.6203 -83.1964 84° East 553 636 45,000  Level Indianapolis Center
18:17 37.6194 -83.0067 90° East 548 631 45,000  Level Indianapolis Center
18:18 37.5625 -82.8333 112° Southeast 532 612 45,000  Level Indianapolis Center
18:19 37.4947 -82.6314 113° Southeast 531 611 45,000  Level Indianapolis Center
18:20 37.4381 -82.4603 113° Southeast 528 608 45,000  Level Indianapolis Center
18:21 37.3811 -82.2886 113° Southeast 528 608 45,000  Level Indianapolis Center
18:22 37.3478 -82.1033 103° East 548 631 45,000  Level Indianapolis Center
18:23 37.3983 -81.9222 71° East 554 638 45,000  Level Indianapolis Center
18:24 37.4786 -81.7575 58° Northeast 554 638 45,000  Level Indianapolis Center
18:25 37.5717 -81.5639 59° Northeast 553 636 45,000  Level Indianapolis Center
18:26 37.6542 -81.3922 59° Northeast 554 638 45,000  Level Indianapolis Center
18:27 37.7311 -81.2300 59° Northeast 553 636 45,000  Level Indianapolis Center
18:28 37.7867 -81.0539 68° East 556 640 45,000  Level Indianapolis Center
18:29 37.7981 -80.8653 86° East 555 639 45,000  Level Indianapolis Center
18:30 37.8103 -80.6683 85° East 554 638 45,000  Level Indianapolis Center
18:31 37.8228 -80.4950 85° East 548 631 45,000  Level Washington Center
18:32 37.8347 -80.3011 85° East 548 631 45,000  Level Washington Center
18:33 37.8467 -80.0994 86° East 554 638 45,000  Level Washington Center
18:34 37.8622 -79.9056 84° East 554 638 45,000  Level Washington Center
18:35 37.8706 -79.7272 87° East 554 638 45,000  Level Washington Center
18:36 37.8833 -79.5306 85° East 554 638 45,000  Level Washington Center
18:37 37.8939 -79.3311 86° East 554 638 45,000  Level Washington Center
18:38 37.9042 -79.1342 86° East 560 644 45,000  Level Washington Center
18:39 37.9244 -78.9378 82° East 560 644 45,000  Level Washington Center
18:40 37.9483 -78.7414 81° East 560 644 45,000  Level Washington Center
18:41 37.9747 -78.5264 81° East 555 639 45,000  Level Washington Center
18:42 37.9981 -78.3297 81° East 555 639 45,000 -180 Level Washington Center
18:43 38.0233 -78.1381 80° East 555 639 44,700 -720 Descending Washington Center
18:44 38.1039 -77.9642 59° Northeast 549 632 43,600 -1,020 Descending Washington Center
18:45 38.1883 -77.7975 57° Northeast 549 632 42,700 -1,260 Descending Washington Center
18:46 38.2747 -77.6283 57° Northeast 555 639 41,200 -1,800 Descending Washington Center
18:47 38.3589 -77.4558 58° Northeast 566 651 39,100 -1,620 Descending Washington Center
18:48 38.4594 -77.2939 52° Northeast 578 665 38,000 -900 Descending Washington Center
18:49 38.5781 -77.1481 44° Northeast 583 671 37,300 -1,200 Descending Washington Center
18:50 38.6989 -76.9989 44° Northeast 591 680 35,700 -1,800 Descending Washington Center
18:51 38.8192 -76.8467 45° Northeast 599 689 33,800 -1,440 Descending Washington Center
18:52 38.9247 -76.7122 45° Northeast 591 680 32,900 -1,260 Descending Washington Center
18:53 39.0386 -76.5697 44° Northeast 580 667 31,300 -2,100 Descending Washington Center
18:54 39.1503 -76.4267 45° Northeast 567 652 28,700 -2,580 Descending Washington Center
18:55 39.2553 -76.2964 44° Northeast 542 624 26,100 -2,580 Descending Washington Center
18:56 39.3642 -76.1581 44° Northeast 516 594 23,600 -2,460 Descending Washington Center
18:58 39.6000 -75.8500 45° Northeast 451 519 17,600 -2,400 Descending Philadelphia TRACON
18:59 39.6833 -75.7500 43° Northeast 434 499 15,400 -2,220 Descending Philadelphia TRACON
19:00 39.7667 -75.6333 47° Northeast 417 480 13,200 -1,260 Descending Philadelphia TRACON
19:01 39.8500 -75.5500 38° Northeast 397 457 13,000 -120 Descending Philadelphia TRACON
19:02 39.9500 -75.4667 33° Northeast 399 459 13,000  Level Philadelphia TRACON
19:03 40.0333 -75.3833 37° Northeast 357 411 13,000  Level Philadelphia TRACON
19:04 40.1167 -75.3000 37° Northeast 364 419 13,000 -300 Level Philadelphia TRACON
19:05 40.1833 -75.2333 37° Northeast 325 374 12,500 -1,380 Descending Philadelphia TRACON
19:08 40.3500 -75.0667 37° Northeast 308 354 8,400 -1,680 Descending New York TRACON
19:09 40.4000 -75.0000 45° Northeast 297 342 7,000 -1,200 Descending New York TRACON
19:10 40.4667 -74.9167 44° Northeast 294 338 6,100 -1,080 Descending New York TRACON
19:11 40.5167 -74.8333 52° Northeast 281 323 4,900 -1,080 Descending New York TRACON
19:12 40.5667 -74.7667 45° Northeast 278 320 4,000 -480 Descending New York TRACON
19:13 40.6333 -74.7167 30° Northeast 276 318 4,000  Level New York TRACON
19:14 40.7000 -74.6833 21° North 277 319 4,000 -180 Level New York TRACON
19:15 40.7667 -74.6167 37° Northeast 280 322 3,700 -480 Descending New York TRACON
19:16 40.8167 -74.5333 52° Northeast 275 316 3,100 -360 Descending New York TRACON
19:17 40.8500 -74.4500 62° Northeast 277 319 3,000 -60 Descending New York TRACON
19:18 40.9000 -74.3667 52° Northeast 273 314 3,000  Level New York TRACON
19:19 40.9333 -74.3000 56° Northeast 251 289 3,000  Level New York TRACON
19:20 40.9833 -74.2333 45° Northeast 230 265 3,000 -60 Level New York TRACON
19:21 41.0000 -74.1500 75° East 227 261 2,900 -360 Descending New York TRACON
19:22 41.0167 -74.0833 72° East 216 249 2,300 -420 Descending New York TRACON
19:23 41.0000 -74.0500 124° Southeast 175 201 2,100 -240 Descending New York TRACON
19:24 40.9500 -74.0500 180° South 137 158 1,900 -420 Descending New York TRACON
19:25 40.9167 -74.0500 180° South 129 148 1,300 -600 Descending New York TRACON
19:26 40.8833 -74.0500 180° South 114 131 700 -600 Descending New York TRACON
19:28 40.8500 -74.0500 101° East  Level FlightAware Approximate
19:35 40.8501 -74.0608 101° East  Level Estimated
19:36 40.8501 -74.0608 101° East  Level Estimated
19:37 40.8501 -74.0608 101° East  Level Estimated
19:38 40.8501 -74.0608 101° East  Level Estimated